Messwerte Managua

Temperatur

Temperatur
°C
1594116000 4.00 4.00 24
1594119600 5.00 5.00
1594123200 6.00 6.00 24
1594126800 7.00 7.00 25
1594130400 8.00 8.00 28
1594134000 9.00 9.00 29
1594137600 10.00 10.00 30
1594141200 11.00 11.00 31
1594144800 12.00 12.00 32
1594148400 13.00 13.00 33
1594152000 14.00 14.00 34
1594155600 15.00 15.00 27
1594159200 16.00 16.00 30
1594162800 17.00 17.00 30
1594166400 18.00 18.00
1594170000 19.00 19.00 29
1594173600 20.00 20.00 27
1594177200 21.00 21.00 26
1594180800 22.00 22.00 26
1594184400 23.00 23.00
1594188000 0.00 0.00 26
1594191600 1.00 1.00 26
1594195200 2.00 2.00 26
1594198800 3.00 3.00 25

Aktuellste Messwerte

Wettercharakter
Wetter: freundlich
Temperatur
25 °C
Feuchtigkeit
85 %
Wind
10 km/hWindrichtung: Ost
Luftdruck
1012 hPa
Messzeit: 8. Juli 2020, 4.00Datenquelle: METAR

Weitere Messstationen in der Nähe

Messstation Temperatur Entfernung
Juigalpa - 87 km
Rivas - 89 km
Jinotega - 105 km
Chinandega - 117 km
Liberia - 188 km
Bluefields - 261 km
Nueva Ocotepeq 19 °C 293 km

Wind

Windrichtung Böen Mittelwind
° km/h km/h
1594116000 4.00 3.00 - 4.00 120° 10
1594119600 5.00 4.00 - 5.00
1594123200 6.00 5.00 - 6.00 150° 5
1594126800 7.00 6.00 - 7.00 130° 5
1594130400 8.00 7.00 - 8.00 110° 10
1594134000 9.00 8.00 - 9.00 110° 15
1594137600 10.00 9.00 - 10.00 70° 10
1594141200 11.00 10.00 - 11.00 70° 20
1594144800 12.00 11.00 - 12.00 80° 20
1594148400 13.00 12.00 - 13.00 70° 15
1594152000 14.00 13.00 - 14.00 80° 20
1594155600 15.00 14.00 - 15.00 90° 25
1594159200 16.00 15.00 - 16.00 90° 5
1594162800 17.00 16.00 - 17.00 90° 10
1594166400 18.00 17.00 - 18.00
1594170000 19.00 18.00 - 19.00 80° 15
1594173600 20.00 19.00 - 20.00 120° 5
1594177200 21.00 20.00 - 21.00 130° 5
1594180800 22.00 21.00 - 22.00 110° 10
1594184400 23.00 22.00 - 23.00
1594188000 0.00 23.00 - 0.00 90° 10
1594191600 1.00 0.00 - 1.00 110° 5
1594195200 2.00 1.00 - 2.00 110° 5
1594198800 3.00 2.00 - 3.00 140° 5

Ihre Wetterstation

Fehlt Ihre Wetterstation auf unserem Portal?

Schreiben Sie an network@meteonews.ch